Terminal Aerodrome Forecast
Issued by NWS

Home | Current Version | Previous Version | Text Only | Print | Product List | Glossary On
Versions: 1 2 3 4 5 6 7 8 9 10 11 12 13 14 15
000
FTAK31 PAJN 262300 RRA
TAFAJN
TAF
PAJN 262342Z 2700/2724 08008KT P6SM VCSH FEW020 BKN040 BKN080
      TEMPO 2700/2703 VRB08G18KT 6SM -SHRA FEW015 BKN030 OVC040
     FM270300 10009KT P6SM -SHRA SCT025 OVC035
     FM270700 11009KT 6SM -SHRA BCFG OVC035
      TEMPO 2707/2711 4SM SHRA BR FEW005 OVC025
     FM271400 10008KT P6SM -SHRA OVC035=

USA.gov is the U.S. government's official web portal to all federal, state and local government web resources and services.